createdAt,value
2022-12-08T04:53:22.897Z,10.63
2022-12-08T04:55:49.748Z,11.30
2022-12-08T04:58:18.396Z,9.20
2022-12-08T05:00:45.718Z,10.32
2022-12-08T05:03:13.195Z,10.52
2022-12-08T05:05:40.069Z,12.47
2022-12-08T05:08:06.660Z,13.88
2022-12-08T05:10:33.244Z,14.45
2022-12-08T05:12:59.936Z,16.08
2022-12-08T05:15:26.453Z,15.93
2022-12-08T05:17:53.273Z,15.77
2022-12-08T05:20:19.794Z,15.27
2022-12-08T05:22:46.330Z,17.25
2022-12-08T05:25:12.835Z,18.20
2022-12-08T05:27:39.319Z,20.23
2022-12-08T05:30:06.833Z,17.90
2022-12-08T05:32:33.625Z,18.63
2022-12-08T05:35:00.189Z,18.00
2022-12-08T05:37:26.694Z,16.95
2022-12-08T05:39:53.182Z,17.92
2022-12-08T05:42:24.593Z,17.73
2022-12-08T05:44:51.522Z,18.13
2022-12-08T05:47:17.982Z,18.70
2022-12-08T05:49:44.981Z,17.60
2022-12-08T05:52:11.528Z,15.65
2022-12-08T05:54:38.177Z,15.33
2022-12-08T05:57:04.695Z,15.25
2022-12-08T05:59:31.149Z,13.52
2022-12-08T06:01:57.780Z,12.77
2022-12-08T06:04:24.416Z,12.77
2022-12-08T06:06:51.012Z,12.83
2022-12-08T06:09:17.505Z,13.35
2022-12-08T06:11:46.404Z,12.63
2022-12-08T06:14:13.525Z,12.73
2022-12-08T06:16:40.131Z,13.55
2022-12-08T06:19:06.695Z,12.83
2022-12-08T06:21:33.162Z,13.13
2022-12-08T06:23:59.724Z,16.33
2022-12-08T06:26:26.286Z,12.77
2022-12-08T06:28:52.995Z,13.73
2022-12-08T06:31:24.718Z,16.50
2022-12-08T06:33:51.806Z,17.58
2022-12-08T06:36:21.447Z,18.67
2022-12-08T06:38:48.363Z,20.00
2022-12-08T06:41:15.037Z,19.55
2022-12-08T06:43:44.663Z,18.23
2022-12-08T06:46:18.447Z,20.85
2022-12-08T06:48:45.518Z,19.30
2022-12-08T06:51:22.137Z,19.30
2022-12-08T06:53:49.455Z,19.17
2022-12-08T06:56:16.542Z,20.13
2022-12-08T06:58:46.130Z,18.17
2022-12-08T07:01:17.074Z,19.88
2022-12-08T07:03:43.749Z,19.95
2022-12-08T07:06:15.911Z,19.13
2022-12-08T07:08:42.630Z,18.83
2022-12-08T07:11:10.221Z,17.80
2022-12-08T07:13:36.707Z,18.15
2022-12-08T07:16:10.855Z,18.85
2022-12-08T07:18:40.841Z,18.40
2022-12-08T07:21:10.331Z,18.37
2022-12-08T07:23:37.154Z,18.50
2022-12-08T07:26:05.762Z,18.25
2022-12-08T07:28:33.677Z,18.58
2022-12-08T07:31:00.254Z,18.17
2022-12-08T07:33:30.074Z,18.37
2022-12-08T07:36:01.329Z,18.73
2022-12-08T07:38:28.257Z,18.08
2022-12-08T07:40:55.208Z,19.10
2022-12-08T07:43:22.660Z,21.02
2022-12-08T07:45:50.099Z,18.73
2022-12-08T07:48:16.764Z,17.25
2022-12-08T07:50:43.969Z,17.33
2022-12-08T07:53:10.600Z,17.13
2022-12-08T07:55:43.545Z,17.75
2022-12-08T07:58:11.076Z,18.60
2022-12-08T08:00:37.773Z,18.17
2022-12-08T08:03:04.758Z,19.77
2022-12-08T08:05:31.358Z,19.50
2022-12-08T08:07:58.016Z,17.92
2022-12-08T08:10:24.643Z,17.57
2022-12-08T08:12:51.207Z,19.58
2022-12-08T08:15:19.334Z,21.40
2022-12-08T08:17:49.560Z,20.20
2022-12-08T08:20:16.074Z,19.92
2022-12-08T08:22:46.432Z,21.23
2022-12-08T08:25:14.903Z,21.05
2022-12-08T08:27:43.482Z,18.58
2022-12-08T08:30:16.581Z,21.77
2022-12-08T08:32:46.440Z,21.35
2022-12-08T08:35:13.661Z,21.37
2022-12-08T08:37:43.131Z,21.13
2022-12-08T08:40:13.706Z,20.02
2022-12-08T08:42:40.355Z,20.55
2022-12-08T08:45:07.427Z,19.88
2022-12-08T08:47:33.927Z,21.37
2022-12-08T08:50:00.528Z,21.35
2022-12-08T08:52:27.125Z,21.88
2022-12-08T08:54:53.614Z,20.27
2022-12-08T08:57:25.315Z,21.50
2022-12-08T08:59:52.568Z,20.80
2022-12-08T09:02:19.579Z,21.73
2022-12-08T09:04:46.381Z,20.95
2022-12-08T09:07:13.005Z,21.02
2022-12-08T09:09:40.290Z,22.00
2022-12-08T09:12:07.443Z,21.53
2022-12-08T09:14:34.397Z,21.52
2022-12-08T09:17:00.902Z,21.52
2022-12-08T09:19:27.429Z,20.48
2022-12-08T09:21:54.081Z,21.60
2022-12-08T09:24:20.595Z,20.30
2022-12-08T09:26:47.345Z,20.10
2022-12-08T09:29:14.756Z,19.98
2022-12-08T09:31:41.712Z,21.48
2022-12-08T09:34:08.678Z,18.45
2022-12-08T09:36:35.222Z,18.70
2022-12-08T09:39:01.810Z,18.42
2022-12-08T09:41:48.602Z,18.40
2022-12-08T09:44:38.690Z,18.45
2022-12-08T09:47:12.876Z,18.60
2022-12-08T09:49:42.414Z,18.27
2022-12-08T09:52:27.195Z,19.60
2022-12-08T09:54:55.798Z,19.23
2022-12-08T09:57:23.978Z,19.80
2022-12-08T09:59:58.285Z,19.20
2022-12-08T10:02:28.066Z,19.80
2022-12-08T10:04:56.151Z,19.30
2022-12-08T10:07:40.009Z,18.98
2022-12-08T10:10:12.577Z,18.58
2022-12-08T10:13:19.731Z,19.38
2022-12-08T10:15:48.348Z,17.60
2022-12-08T10:18:20.401Z,17.77
2022-12-08T10:20:48.913Z,18.15
2022-12-08T10:23:18.425Z,19.55
2022-12-08T10:25:50.172Z,18.73
2022-12-08T10:28:16.626Z,18.67
2022-12-08T10:30:46.233Z,17.70
2022-12-08T10:33:16.016Z,17.52
2022-12-08T10:35:51.735Z,18.48
2022-12-08T10:38:41.304Z,17.70
2022-12-08T10:41:10.637Z,17.53
2022-12-08T10:44:00.965Z,17.77
2022-12-08T10:46:28.419Z,18.45
2022-12-08T10:49:10.713Z,19.38
2022-12-08T10:51:43.796Z,18.92
2022-12-08T10:54:33.751Z,16.07
2022-12-08T10:57:00.298Z,16.90
2022-12-08T10:59:27.036Z,16.30
2022-12-08T11:01:55.582Z,16.20
2022-12-08T11:04:36.513Z,15.20
2022-12-08T11:07:05.294Z,11.10
2022-12-08T11:09:39.982Z,9.55
2022-12-08T11:12:09.542Z,10.10
2022-12-08T11:14:45.001Z,9.40
2022-12-08T11:17:24.585Z,10.13
2022-12-08T11:19:59.956Z,9.77
2022-12-08T11:22:39.952Z,10.27
2022-12-08T11:25:25.400Z,10.27
2022-12-08T11:27:58.041Z,10.40
2022-12-08T11:31:32.661Z,9.63
2022-12-08T11:33:59.281Z,11.97
2022-12-08T11:36:27.486Z,11.60
2022-12-08T11:38:57.246Z,11.18
2022-12-08T11:41:27.598Z,10.02
2022-12-08T11:44:22.028Z,9.75
2022-12-08T11:47:12.591Z,9.80
2022-12-08T11:49:41.995Z,10.27
2022-12-08T11:52:18.283Z,10.20
2022-12-08T11:54:48.874Z,10.40
2022-12-08T11:57:20.879Z,12.13
2022-12-08T11:59:50.469Z,11.17
2022-12-08T12:02:23.232Z,11.50
2022-12-08T12:04:57.186Z,10.32
2022-12-08T12:07:51.189Z,9.77
2022-12-08T12:10:36.024Z,9.15
2022-12-08T12:13:18.643Z,10.57
2022-12-08T12:16:16.197Z,9.43
2022-12-08T12:18:56.576Z,9.18
2022-12-08T12:21:36.473Z,9.93
2022-12-08T12:24:08.893Z,9.15
2022-12-08T12:26:37.967Z,10.17
2022-12-08T12:29:07.726Z,10.00
2022-12-08T12:31:37.674Z,9.15
2022-12-08T12:34:34.581Z,9.35
2022-12-08T12:37:13.312Z,9.88
2022-12-08T12:39:51.948Z,9.40
2022-12-08T12:42:38.942Z,10.55
2022-12-08T12:45:11.388Z,10.75
2022-12-08T12:47:54.327Z,9.93
2022-12-08T12:50:34.607Z,10.18
2022-12-08T12:53:10.697Z,9.60
2022-12-08T12:55:46.485Z,8.95
2022-12-08T12:58:29.636Z,9.23
2022-12-08T13:01:14.172Z,9.85
2022-12-08T13:03:50.232Z,8.73
2022-12-08T13:06:32.440Z,10.40
2022-12-08T13:08:59.320Z,9.80
2022-12-08T13:11:26.185Z,10.10
2022-12-08T13:14:02.346Z,10.82
2022-12-08T13:16:33.010Z,13.75
2022-12-08T13:19:03.323Z,14.37
2022-12-08T13:21:37.818Z,13.90
2022-12-08T13:24:10.620Z,16.35
2022-12-08T13:26:44.594Z,18.65
2022-12-08T13:29:21.720Z,18.13
2022-12-08T13:31:51.307Z,18.47
2022-12-08T13:34:41.813Z,16.58
2022-12-08T13:37:11.095Z,15.07
2022-12-08T13:39:40.630Z,14.48
2022-12-08T13:42:13.044Z,16.17
2022-12-08T13:47:59.620Z,16.35
2022-12-08T13:51:16.129Z,16.38
2022-12-08T13:59:28.283Z,14.37
2022-12-08T14:01:56.710Z,13.77
2022-12-08T14:04:47.883Z,15.98
2022-12-08T14:07:11.609Z,16.17
2022-12-08T14:09:38.294Z,13.80
2022-12-08T14:12:31.098Z,14.27
2022-12-08T14:15:03.651Z,15.82
2022-12-08T14:17:30.575Z,14.02
2022-12-08T14:19:59.668Z,14.60
2022-12-08T14:22:33.976Z,14.88
2022-12-08T14:25:00.731Z,15.33
2022-12-08T14:27:30.051Z,15.00
2022-12-08T14:29:58.539Z,15.00
2022-12-08T14:32:32.576Z,17.73
2022-12-08T14:35:08.258Z,15.55
2022-12-08T14:37:38.922Z,16.57
2022-12-08T14:40:09.910Z,17.00
2022-12-08T14:42:47.485Z,16.35
2022-12-08T14:45:16.565Z,15.57
2022-12-08T14:47:43.215Z,16.10
2022-12-08T14:50:43.900Z,15.80
2022-12-08T14:53:15.313Z,16.02
2022-12-08T14:55:43.706Z,17.13
2022-12-08T14:58:27.863Z,17.10
2022-12-08T15:00:58.819Z,17.58
2022-12-08T15:03:27.771Z,15.93
2022-12-08T15:06:00.323Z,16.65
2022-12-08T15:08:26.896Z,18.52
2022-12-08T15:11:21.386Z,17.50
2022-12-08T15:13:49.847Z,16.20
2022-12-08T15:16:36.523Z,17.00
2022-12-08T15:19:05.993Z,18.90
2022-12-08T15:21:37.584Z,20.52
2022-12-08T15:24:04.274Z,15.07
2022-12-08T15:26:35.771Z,16.80
2022-12-08T15:29:11.738Z,16.73
2022-12-08T15:31:38.338Z,17.38
2022-12-08T15:34:04.883Z,29.83
2022-12-08T15:36:31.394Z,20.15
2022-12-08T15:38:57.860Z,16.95
2022-12-08T15:41:24.307Z,14.97
2022-12-08T15:43:50.786Z,17.05
2022-12-08T15:46:17.432Z,17.42
2022-12-08T15:48:44.210Z,20.55
2022-12-08T15:51:10.786Z,17.48
2022-12-08T15:53:37.313Z,17.10
2022-12-08T15:58:55.144Z,15.30
2022-12-08T16:01:23.057Z,15.27
2022-12-08T16:09:36.444Z,16.85
2022-12-08T16:12:21.845Z,18.88
2022-12-08T16:17:35.481Z,15.25
2022-12-08T16:20:02.821Z,13.67
2022-12-08T16:25:20.235Z,14.20
2022-12-08T16:28:37.061Z,15.32
2022-12-08T16:30:38.955Z,12.63
2022-12-08T16:33:05.474Z,14.67
2022-12-08T16:35:31.968Z,13.15
2022-12-08T16:37:58.447Z,14.02
2022-12-08T16:40:25.088Z,14.88
2022-12-08T16:42:51.609Z,13.95
2022-12-08T16:45:26.989Z,16.13
2022-12-08T16:47:55.489Z,15.38
2022-12-08T16:50:24.673Z,16.63
2022-12-08T16:53:00.211Z,15.77
2022-12-08T16:55:26.962Z,15.13
2022-12-08T16:57:54.374Z,15.43
2022-12-08T17:00:23.376Z,14.35
2022-12-08T17:02:50.467Z,14.80
2022-12-08T17:05:19.715Z,14.80
2022-12-08T17:07:47.751Z,14.23
2022-12-08T17:10:17.136Z,14.30
2022-12-08T17:12:44.004Z,16.55
2022-12-08T17:15:13.914Z,15.05
2022-12-08T17:17:40.488Z,14.70
2022-12-08T17:20:09.754Z,14.77
2022-12-08T17:22:36.342Z,14.80
2022-12-08T17:25:02.985Z,15.68
2022-12-08T17:27:29.518Z,15.35
2022-12-08T17:29:56.184Z,14.48
2022-12-08T17:32:22.792Z,14.50
2022-12-08T17:34:49.677Z,14.90
2022-12-08T17:37:17.088Z,14.30
2022-12-08T17:39:43.654Z,14.57
2022-12-08T17:42:10.262Z,14.98
2022-12-08T17:44:36.809Z,15.18
2022-12-08T17:47:04.975Z,14.27
2022-12-08T17:49:32.894Z,15.18
2022-12-08T17:52:01.817Z,14.60
2022-12-08T17:54:29.006Z,14.32
2022-12-08T17:56:58.585Z,13.07
2022-12-08T17:59:26.484Z,13.50
2022-12-08T18:01:53.984Z,14.07
2022-12-08T18:04:21.033Z,14.30
2022-12-08T18:06:47.714Z,13.82
2022-12-08T18:09:14.926Z,13.52
2022-12-08T18:11:42.057Z,14.87
2022-12-08T18:14:11.525Z,13.40
2022-12-08T18:16:40.763Z,13.45
2022-12-08T18:19:07.919Z,14.50
2022-12-08T18:21:34.957Z,13.90
2022-12-08T18:24:01.684Z,13.73
2022-12-08T18:26:30.595Z,15.60
2022-12-08T18:28:57.518Z,14.75
2022-12-08T18:31:24.716Z,14.95
2022-12-08T18:33:52.510Z,15.45
2022-12-08T18:36:22.490Z,15.57
2022-12-08T18:38:49.911Z,15.93
2022-12-08T18:41:26.015Z,16.17
2022-12-08T18:43:54.361Z,15.63
2022-12-08T18:46:21.215Z,15.23
2022-12-08T18:48:49.494Z,15.93
2022-12-08T18:51:21.487Z,16.27
2022-12-08T18:53:48.663Z,15.50
2022-12-08T18:56:23.205Z,15.43
2022-12-08T18:58:49.743Z,14.18
2022-12-08T19:01:16.641Z,13.50
2022-12-08T19:04:04.697Z,16.08
2022-12-08T19:06:30.036Z,12.73
2022-12-08T19:08:56.963Z,15.57
2022-12-08T19:11:26.453Z,14.07
2022-12-08T19:13:53.742Z,14.40
2022-12-08T19:16:20.773Z,13.77
2022-12-08T19:18:47.396Z,12.73
2022-12-08T19:21:14.049Z,12.90
2022-12-08T19:23:41.151Z,13.95
2022-12-08T19:26:08.086Z,13.17
2022-12-08T19:28:35.303Z,12.68
2022-12-08T19:31:06.378Z,12.25
2022-12-08T19:33:33.143Z,12.02
2022-12-08T19:36:05.494Z,11.63
2022-12-08T19:38:51.901Z,12.07
2022-12-08T19:41:37.259Z,11.43
2022-12-08T19:44:22.770Z,11.23
2022-12-08T19:46:49.395Z,10.63
2022-12-08T19:49:15.958Z,11.27
2022-12-08T19:51:42.473Z,11.37
2022-12-08T19:54:09.554Z,10.65
2022-12-08T19:56:36.000Z,11.40
2022-12-08T19:59:02.473Z,11.35
2022-12-08T20:01:29.062Z,10.75
2022-12-08T20:03:55.606Z,11.07
2022-12-08T20:06:23.277Z,11.20
2022-12-08T20:08:50.914Z,11.07
2022-12-08T20:11:17.513Z,11.05
2022-12-08T20:13:45.769Z,11.73
2022-12-08T20:16:12.796Z,11.50
2022-12-08T20:18:42.785Z,11.98
2022-12-08T20:21:09.950Z,11.10
2022-12-08T20:23:37.101Z,11.73
2022-12-08T20:26:05.401Z,12.25
2022-12-08T20:28:31.852Z,11.03
2022-12-08T20:30:58.392Z,11.70
2022-12-08T20:33:24.974Z,12.05
2022-12-08T20:36:03.325Z,12.20
2022-12-08T20:38:30.254Z,12.77
